createdAt,value
2019-05-13T00:00:37.198Z,9.90
2019-05-13T00:03:19.109Z,10.00
2019-05-13T00:06:01.232Z,10.00
2019-05-13T00:08:44.035Z,10.00
2019-05-13T00:11:26.275Z,10.00
2019-05-13T00:14:08.254Z,10.00
2019-05-13T00:16:50.322Z,10.00
2019-05-13T00:19:33.927Z,10.00
2019-05-13T00:22:16.561Z,10.00
2019-05-13T00:24:58.688Z,9.90
2019-05-13T00:27:44.374Z,9.70
2019-05-13T00:30:25.976Z,9.70
2019-05-13T00:33:07.831Z,9.60
2019-05-13T00:35:49.830Z,9.60
2019-05-13T00:38:33.584Z,9.50
2019-05-13T00:41:14.315Z,9.40
2019-05-13T00:44:04.017Z,9.40
2019-05-13T00:56:36.301Z,9.40
2019-05-13T00:59:27.587Z,9.50
2019-05-13T01:02:17.247Z,9.50
2019-05-13T01:05:26.264Z,9.50
2019-05-13T01:11:49.768Z,9.60
2019-05-13T01:21:23.872Z,9.40
2019-05-13T01:24:25.035Z,9.60
2019-05-13T01:27:07.210Z,9.60
2019-05-13T01:29:49.309Z,9.60
2019-05-13T01:32:34.198Z,9.50
2019-05-13T01:35:15.716Z,9.40
2019-05-13T01:37:57.472Z,9.20
2019-05-13T01:40:39.224Z,9.20
2019-05-13T01:43:21.382Z,9.10
2019-05-13T01:46:04.525Z,9.10
2019-05-13T01:48:46.374Z,9.00
2019-05-13T01:51:28.476Z,9.00
2019-05-13T01:54:10.568Z,9.00
2019-05-13T01:56:53.477Z,9.00
2019-05-13T01:59:35.945Z,9.00
2019-05-13T02:02:18.431Z,8.90
2019-05-13T02:05:00.467Z,8.90
2019-05-13T02:07:54.523Z,8.90
2019-05-13T02:10:45.923Z,8.90
2019-05-13T02:13:28.211Z,8.90
2019-05-13T02:16:10.760Z,8.90
2019-05-13T02:18:53.708Z,8.80
2019-05-13T02:21:36.128Z,8.80
2019-05-13T02:24:18.046Z,8.80
2019-05-13T02:27:00.692Z,8.80
2019-05-13T02:29:43.624Z,9.00
2019-05-13T02:32:26.086Z,9.00
2019-05-13T02:35:08.392Z,8.90
2019-05-13T02:37:52.578Z,8.90
2019-05-13T02:40:33.837Z,8.90
2019-05-13T02:43:16.011Z,8.90
2019-05-13T02:45:58.186Z,8.90
2019-05-13T02:48:42.250Z,8.90
2019-05-13T02:51:24.149Z,8.80
2019-05-13T02:54:06.073Z,8.90
2019-05-13T02:56:48.179Z,8.90
2019-05-13T02:59:33.437Z,8.80
2019-05-13T03:02:14.769Z,8.80
2019-05-13T03:04:57.047Z,8.80
2019-05-13T03:07:42.219Z,8.80
2019-05-13T03:10:22.415Z,8.80
2019-05-13T03:16:45.957Z,8.80
2019-05-13T03:19:35.672Z,8.80
2019-05-13T03:22:44.716Z,8.70
2019-05-13T03:29:08.080Z,8.70
2019-05-13T03:35:46.634Z,8.70
2019-05-13T03:42:04.560Z,8.70
2019-05-13T03:44:46.508Z,8.60
2019-05-13T03:47:28.939Z,8.60
2019-05-13T03:50:13.021Z,8.50
2019-05-13T03:52:54.486Z,8.50
2019-05-13T03:55:36.864Z,8.50
2019-05-13T03:58:18.903Z,8.40
2019-05-13T04:01:02.891Z,8.40
2019-05-13T04:03:44.518Z,8.30
2019-05-13T04:06:27.049Z,8.30
2019-05-13T04:09:24.092Z,8.30
2019-05-13T04:11:52.790Z,8.30
2019-05-13T04:14:34.651Z,8.30
2019-05-13T04:17:17.135Z,8.20
2019-05-13T04:20:02.838Z,8.20
2019-05-13T04:22:43.153Z,8.20
2019-05-13T04:25:25.673Z,8.20
2019-05-13T04:28:07.851Z,8.20
2019-05-13T04:30:52.558Z,8.20
2019-05-13T04:33:33.938Z,8.20
2019-05-13T04:36:15.964Z,8.20
2019-05-13T04:38:57.753Z,8.20
2019-05-13T04:52:42.135Z,8.20
2019-05-13T04:55:52.444Z,8.20
2019-05-13T05:02:39.845Z,8.10
2019-05-13T05:06:03.536Z,8.20
2019-05-13T05:09:12.517Z,8.10
2019-05-13T05:12:42.549Z,8.10
2019-05-13T05:15:44.751Z,8.10
2019-05-13T05:18:26.941Z,8.20
2019-05-13T05:21:11.786Z,8.30
2019-05-13T05:23:52.493Z,8.40
2019-05-13T05:26:34.724Z,8.50
2019-05-13T05:29:17.447Z,8.60
2019-05-13T05:32:01.329Z,8.60
2019-05-13T05:34:43.444Z,8.50
2019-05-13T05:37:26.285Z,8.60
2019-05-13T05:40:08.046Z,8.70
2019-05-13T05:42:51.797Z,8.70
2019-05-13T05:45:34.371Z,8.80
2019-05-13T05:48:16.652Z,8.90
2019-05-13T05:51:02.002Z,9.00
2019-05-13T05:53:43.363Z,9.10
2019-05-13T05:56:25.449Z,9.20
2019-05-13T05:59:07.245Z,9.30
2019-05-13T06:01:52.337Z,9.40
2019-05-13T06:04:33.203Z,9.40
2019-05-13T06:07:15.721Z,9.50
2019-05-13T06:09:58.154Z,9.60
2019-05-13T06:12:42.314Z,9.60
2019-05-13T06:15:25.361Z,9.70
2019-05-13T06:18:07.720Z,9.70
2019-05-13T06:20:51.186Z,9.70
2019-05-13T06:23:33.000Z,9.70
2019-05-13T06:26:14.836Z,9.70
2019-05-13T06:28:56.775Z,9.70
2019-05-13T06:31:38.565Z,9.70
2019-05-13T06:34:21.530Z,9.90
2019-05-13T06:37:04.010Z,9.90
2019-05-13T06:39:45.857Z,9.90
2019-05-13T06:42:27.614Z,10.00
2019-05-13T06:45:12.199Z,10.00
2019-05-13T06:47:53.687Z,9.90
2019-05-13T06:50:36.166Z,10.00
2019-05-13T06:53:18.417Z,10.00
2019-05-13T06:56:01.532Z,10.00
2019-05-13T06:58:43.439Z,10.10
2019-05-13T07:01:25.336Z,10.10
2019-05-13T07:04:07.463Z,10.30
2019-05-13T07:06:52.912Z,10.50
2019-05-13T07:09:33.396Z,10.50
2019-05-13T07:12:15.414Z,10.50
2019-05-13T07:14:57.338Z,10.50
2019-05-13T07:17:41.576Z,10.50
2019-05-13T07:20:23.496Z,10.50
2019-05-13T07:23:05.435Z,10.50
2019-05-13T07:25:47.518Z,10.50
2019-05-13T07:28:32.054Z,10.50
2019-05-13T07:31:13.056Z,10.50
2019-05-13T07:33:55.044Z,10.60
2019-05-13T07:36:37.128Z,10.60
2019-05-13T07:39:19.134Z,10.60
2019-05-13T07:42:04.987Z,10.60
2019-05-13T07:44:45.021Z,10.70
2019-05-13T07:47:27.035Z,10.80
2019-05-13T07:50:09.154Z,10.80
2019-05-13T07:52:51.565Z,10.80
2019-05-13T07:55:33.794Z,10.70
2019-05-13T07:58:16.026Z,10.80
2019-05-13T08:00:57.960Z,10.80
2019-05-13T08:03:42.171Z,11.00
2019-05-13T08:06:22.390Z,11.00
2019-05-13T08:12:27.612Z,10.90
2019-05-13T08:22:01.850Z,11.10
2019-05-13T08:24:43.405Z,11.10
2019-05-13T08:27:30.518Z,11.10
2019-05-13T08:30:11.729Z,11.30
2019-05-13T08:32:53.365Z,11.40
2019-05-13T08:35:35.156Z,11.40
2019-05-13T08:38:17.394Z,11.40
2019-05-13T08:41:01.804Z,11.40
2019-05-13T08:43:43.697Z,11.40
2019-05-13T08:46:25.675Z,11.40
2019-05-13T08:49:07.690Z,11.50
2019-05-13T08:51:52.505Z,11.50
2019-05-13T08:54:33.924Z,11.60
2019-05-13T08:57:16.058Z,11.60
2019-05-13T08:59:58.139Z,11.60
2019-05-13T09:02:42.021Z,11.60
2019-05-13T09:05:24.376Z,11.70
2019-05-13T09:08:06.675Z,11.70
2019-05-13T09:10:48.748Z,11.70
2019-05-13T09:13:32.991Z,11.80
2019-05-13T09:16:14.927Z,11.80
2019-05-13T09:18:57.006Z,11.80
2019-05-13T09:21:39.314Z,11.80
2019-05-13T09:24:30.501Z,11.90
2019-05-13T09:27:05.475Z,11.80
2019-05-13T09:29:47.499Z,11.90
2019-05-13T09:32:31.204Z,11.90
2019-05-13T09:35:13.291Z,11.90
2019-05-13T09:37:55.074Z,12.00
2019-05-13T09:40:37.409Z,12.00
2019-05-13T09:43:22.079Z,12.00
2019-05-13T09:46:03.618Z,12.10
2019-05-13T09:48:45.627Z,12.20
2019-05-13T09:51:27.535Z,12.20
2019-05-13T09:54:11.658Z,12.10
2019-05-13T09:56:52.855Z,12.10
2019-05-13T10:02:57.187Z,12.20
2019-05-13T10:06:06.445Z,12.20
2019-05-13T10:09:15.584Z,12.20
2019-05-13T10:22:04.818Z,12.20
2019-05-13T10:25:34.128Z,12.20
2019-05-13T10:29:03.481Z,12.30
2019-05-13T10:32:12.459Z,12.50
2019-05-13T10:35:03.313Z,12.60
2019-05-13T10:37:54.183Z,12.70
2019-05-13T10:40:43.728Z,12.60
2019-05-13T10:47:02.532Z,12.50
2019-05-13T10:53:22.127Z,12.50
2019-05-13T10:56:32.704Z,12.60
2019-05-13T11:12:35.699Z,12.50
2019-05-13T11:15:25.224Z,12.40
2019-05-13T11:18:27.135Z,12.40
2019-05-13T11:21:12.289Z,12.40
2019-05-13T11:23:53.536Z,12.40
2019-05-13T11:26:36.676Z,12.40
2019-05-13T11:29:18.986Z,12.50
2019-05-13T11:32:02.721Z,12.50
2019-05-13T11:34:45.522Z,12.50
2019-05-13T11:37:27.860Z,12.70
2019-05-13T11:40:11.964Z,12.70
2019-05-13T11:42:53.663Z,12.60
2019-05-13T11:45:35.696Z,12.50
2019-05-13T11:48:18.155Z,12.50
2019-05-13T11:51:03.423Z,12.40
2019-05-13T11:53:44.016Z,12.50
2019-05-13T11:56:25.823Z,12.50
2019-05-13T11:59:07.895Z,12.60
2019-05-13T12:01:53.498Z,12.60
2019-05-13T12:04:34.475Z,13.00
2019-05-13T12:07:17.391Z,13.20
2019-05-13T12:09:59.211Z,13.40
2019-05-13T12:12:43.909Z,13.20
2019-05-13T12:15:33.519Z,13.10
2019-05-13T12:18:08.958Z,13.10
2019-05-13T12:20:54.056Z,13.10
2019-05-13T12:23:35.083Z,13.20
2019-05-13T12:26:17.724Z,13.10
2019-05-13T12:29:02.687Z,13.00
2019-05-13T12:31:43.873Z,12.90
2019-05-13T12:34:26.414Z,13.10
2019-05-13T12:37:09.139Z,13.10
2019-05-13T12:39:53.150Z,13.30
2019-05-13T12:42:35.353Z,13.20
2019-05-13T12:45:17.480Z,13.10
2019-05-13T12:48:02.954Z,13.00
2019-05-13T12:50:43.389Z,12.90
2019-05-13T12:53:25.487Z,12.90
2019-05-13T12:56:07.565Z,12.80
2019-05-13T12:58:52.040Z,12.80
2019-05-13T13:01:34.116Z,12.80
2019-05-13T13:04:16.303Z,12.80
2019-05-13T13:06:58.941Z,12.90
2019-05-13T13:09:43.249Z,13.00
2019-05-13T13:12:34.161Z,13.00
2019-05-13T13:15:33.002Z,13.00
2019-05-13T13:17:54.117Z,12.90
2019-05-13T13:20:42.167Z,12.90
2019-05-13T13:23:23.202Z,12.90
2019-05-13T13:26:04.003Z,13.00
2019-05-13T13:28:46.239Z,13.00
2019-05-13T13:31:28.335Z,13.10
2019-05-13T13:34:13.562Z,13.10
2019-05-13T13:36:54.574Z,13.10
2019-05-13T13:39:36.296Z,13.10
2019-05-13T13:42:18.462Z,13.00
2019-05-13T13:45:05.323Z,13.00
2019-05-13T13:47:45.682Z,12.90
2019-05-13T13:50:28.201Z,12.90
2019-05-13T13:53:13.899Z,13.10
2019-05-13T13:58:37.727Z,13.10
2019-05-13T14:01:26.031Z,13.10
2019-05-13T14:04:04.177Z,13.20
2019-05-13T14:07:09.453Z,13.10
2019-05-13T14:09:30.259Z,13.20
2019-05-13T14:12:12.772Z,13.20
2019-05-13T14:14:54.763Z,13.30
2019-05-13T14:17:37.176Z,13.30
2019-05-13T14:20:21.789Z,13.20
2019-05-13T14:23:03.339Z,13.20
2019-05-13T14:25:45.278Z,13.20
2019-05-13T14:28:27.662Z,13.20
2019-05-13T14:31:09.736Z,13.30
2019-05-13T14:33:52.360Z,13.40
2019-05-13T14:36:35.040Z,13.30
2019-05-13T14:39:17.042Z,13.30
2019-05-13T14:41:59.258Z,13.30
2019-05-13T14:44:41.267Z,13.30
2019-05-13T14:47:23.564Z,13.30
2019-05-13T14:50:05.511Z,13.30
2019-05-13T14:52:47.500Z,13.30
2019-05-13T14:55:31.898Z,13.30
2019-05-13T14:58:12.825Z,13.30
2019-05-13T15:01:11.332Z,13.30
2019-05-13T15:03:41.563Z,13.30
2019-05-13T15:06:24.109Z,13.20
2019-05-13T15:09:06.490Z,13.20
2019-05-13T15:11:52.538Z,13.30
2019-05-13T15:14:33.412Z,13.30
2019-05-13T15:17:16.180Z,13.40
2019-05-13T15:19:58.276Z,13.50
2019-05-13T15:22:42.452Z,13.60
2019-05-13T15:25:25.188Z,13.50
2019-05-13T15:28:07.380Z,13.50
2019-05-13T15:30:51.580Z,13.50
2019-05-13T15:33:33.511Z,13.40
2019-05-13T15:36:15.779Z,13.50
2019-05-13T15:38:57.768Z,13.90
2019-05-13T15:41:41.764Z,13.80
2019-05-13T15:44:24.772Z,13.70
2019-05-13T15:47:20.225Z,13.70
2019-05-13T15:49:50.262Z,13.60
2019-05-13T15:52:34.147Z,13.60
2019-05-13T15:55:16.768Z,13.80
2019-05-13T15:57:58.580Z,13.90
2019-05-13T16:00:41.909Z,13.80
2019-05-13T16:03:24.727Z,13.80
2019-05-13T16:06:06.673Z,13.80
2019-05-13T16:08:51.628Z,13.70
2019-05-13T16:11:32.805Z,13.70
2019-05-13T16:14:15.167Z,13.60
2019-05-13T16:16:57.003Z,13.50
2019-05-13T16:19:41.863Z,13.40
2019-05-13T16:22:23.456Z,13.40
2019-05-13T16:25:05.381Z,13.50
2019-05-13T16:27:47.487Z,13.50
2019-05-13T16:30:32.096Z,13.60
2019-05-13T16:33:13.817Z,13.70
2019-05-13T16:35:55.618Z,13.70
2019-05-13T16:38:37.780Z,13.70
2019-05-13T16:41:22.099Z,13.70
2019-05-13T16:44:03.977Z,13.60
2019-05-13T16:46:45.737Z,13.50
2019-05-13T16:49:27.951Z,13.40
2019-05-13T16:52:11.683Z,13.40
2019-05-13T16:54:54.974Z,13.30
2019-05-13T16:57:36.773Z,13.20
2019-05-13T17:00:19.010Z,13.20
2019-05-13T17:03:02.345Z,13.20
2019-05-13T17:05:44.621Z,13.20
2019-05-13T17:08:26.751Z,13.20
2019-05-13T17:11:11.558Z,13.20
2019-05-13T17:13:53.568Z,13.20
2019-05-13T17:16:35.772Z,13.30
2019-05-13T17:19:17.975Z,13.30
2019-05-13T17:22:02.293Z,13.20
2019-05-13T17:24:43.604Z,13.20
2019-05-13T17:27:25.546Z,13.20
2019-05-13T17:30:07.684Z,13.10
2019-05-13T17:32:51.604Z,13.10
2019-05-13T17:35:34.053Z,13.10
2019-05-13T17:38:16.414Z,13.00
2019-05-13T17:40:58.603Z,13.00
2019-05-13T17:43:41.289Z,13.00
2019-05-13T17:46:23.902Z,13.00
2019-05-13T17:49:06.248Z,12.90
2019-05-13T17:51:48.791Z,12.80
2019-05-13T17:54:31.855Z,12.80
2019-05-13T17:57:14.431Z,12.80
2019-05-13T17:59:56.511Z,12.70
2019-05-13T18:02:38.870Z,12.60
2019-05-13T18:05:22.551Z,12.60
2019-05-13T18:08:05.076Z,12.50
2019-05-13T18:10:47.270Z,12.50
2019-05-13T18:13:29.618Z,12.50
2019-05-13T18:16:12.529Z,12.50
2019-05-13T18:18:55.935Z,12.50
2019-05-13T18:21:37.637Z,12.50
2019-05-13T18:24:21.301Z,12.40
2019-05-13T18:27:03.522Z,12.40
2019-05-13T18:29:45.648Z,12.40
2019-05-13T18:32:27.947Z,12.40
2019-05-13T18:35:12.097Z,12.30
2019-05-13T18:37:54.362Z,12.30
2019-05-13T18:40:36.301Z,12.20
2019-05-13T18:43:18.505Z,12.20
2019-05-13T18:46:02.039Z,12.20
2019-05-13T18:48:58.238Z,12.20
2019-05-13T18:51:28.328Z,12.20
2019-05-13T18:57:07.560Z,12.10
2019-05-13T19:00:16.611Z,12.00
2019-05-13T19:03:06.200Z,12.00
2019-05-13T19:06:15.170Z,11.90
2019-05-13T19:12:42.043Z,11.80
2019-05-13T19:15:51.695Z,11.70
2019-05-13T19:18:54.507Z,11.60
2019-05-13T19:21:36.700Z,11.60
2019-05-13T19:24:19.159Z,11.60
2019-05-13T19:27:01.972Z,11.60
2019-05-13T19:29:44.838Z,11.50
2019-05-13T19:32:27.146Z,11.40
2019-05-13T19:35:11.443Z,11.40
2019-05-13T19:37:53.254Z,11.30
2019-05-13T19:40:36.424Z,11.30
2019-05-13T19:43:19.038Z,11.30
2019-05-13T19:46:01.965Z,11.20
2019-05-13T19:48:44.308Z,11.20
2019-05-13T19:51:28.327Z,11.20
2019-05-13T19:54:11.696Z,11.10
2019-05-13T19:56:53.984Z,11.00
2019-05-13T19:59:35.834Z,11.00
2019-05-13T20:02:18.031Z,11.00
2019-05-13T20:05:01.284Z,10.90
2019-05-13T20:07:43.661Z,10.90
2019-05-13T20:10:25.605Z,10.90
2019-05-13T20:13:08.474Z,10.80
2019-05-13T20:15:51.967Z,10.80
2019-05-13T20:18:34.902Z,10.80
2019-05-13T20:21:17.034Z,10.80
2019-05-13T20:23:59.271Z,10.70
2019-05-13T20:26:42.023Z,10.70
2019-05-13T20:29:24.047Z,10.70
2019-05-13T20:32:06.739Z,10.60
2019-05-13T20:34:51.334Z,10.60
2019-05-13T20:37:33.857Z,10.60
2019-05-13T20:40:16.543Z,10.50
2019-05-13T20:42:58.310Z,10.50
2019-05-13T20:45:42.149Z,10.40
2019-05-13T20:48:24.516Z,10.40
2019-05-13T20:51:07.279Z,10.30
2019-05-13T20:53:51.629Z,10.20
2019-05-13T20:56:34.115Z,10.20
2019-05-13T20:59:17.258Z,10.20
2019-05-13T21:02:02.131Z,10.20
2019-05-13T21:04:43.447Z,10.10
2019-05-13T21:07:25.782Z,10.10
2019-05-13T21:10:08.056Z,10.10
2019-05-13T21:12:51.562Z,10.10
2019-05-13T21:15:33.863Z,10.10
2019-05-13T21:18:16.153Z,10.00
2019-05-13T21:20:58.612Z,10.00
2019-05-13T21:23:41.748Z,10.00
2019-05-13T21:26:23.926Z,9.90
2019-05-13T21:29:06.519Z,10.00
2019-05-13T21:31:48.980Z,10.00
2019-05-13T21:34:31.631Z,9.90
2019-05-13T21:37:14.270Z,9.90
2019-05-13T21:39:56.824Z,9.90
2019-05-13T21:42:41.989Z,9.90
2019-05-13T21:45:23.955Z,9.80
2019-05-13T21:48:07.691Z,9.90
2019-05-13T21:50:51.577Z,9.80
2019-05-13T21:53:33.719Z,9.80
2019-05-13T21:56:15.450Z,9.80
2019-05-13T21:58:57.817Z,9.80
2019-05-13T22:01:42.306Z,9.80
2019-05-13T22:04:24.163Z,9.80
2019-05-13T22:07:05.887Z,9.80
2019-05-13T22:09:48.120Z,9.70
2019-05-13T22:12:32.003Z,9.70
2019-05-13T22:15:13.927Z,9.70
2019-05-13T22:17:56.072Z,9.60
2019-05-13T22:20:47.416Z,9.60
2019-05-13T22:23:22.683Z,9.60
2019-05-13T22:26:04.702Z,9.60
2019-05-13T22:28:46.508Z,9.60
2019-05-13T22:31:31.088Z,9.50
2019-05-13T22:34:13.550Z,9.50
2019-05-13T22:36:55.512Z,9.50
2019-05-13T22:39:37.323Z,9.60
2019-05-13T22:42:21.413Z,9.70
2019-05-13T22:44:52.228Z,9.50
2019-05-13T22:47:23.435Z,9.60
2019-05-13T22:49:56.799Z,9.60
2019-05-13T22:52:26.403Z,9.50
2019-05-13T22:54:56.918Z,9.60
2019-05-13T22:57:27.436Z,9.60
2019-05-13T22:59:59.050Z,9.60
2019-05-13T23:02:33.331Z,9.70
2019-05-13T23:05:01.898Z,9.70
2019-05-13T23:07:32.408Z,9.70
2019-05-13T23:10:03.144Z,9.70
2019-05-13T23:12:33.846Z,9.60
2019-05-13T23:15:05.106Z,9.50
2019-05-13T23:17:35.945Z,9.50
2019-05-13T23:20:07.388Z,9.50
2019-05-13T23:22:38.512Z,9.40
2019-05-13T23:25:09.448Z,9.40
2019-05-13T23:27:41.522Z,9.40
2019-05-13T23:30:14.737Z,9.30
2019-05-13T23:32:45.211Z,9.20
2019-05-13T23:35:15.854Z,9.30
2019-05-13T23:37:46.824Z,9.20
2019-05-13T23:40:17.379Z,9.20
2019-05-13T23:42:47.950Z,9.20
2019-05-13T23:45:18.422Z,8.90
2019-05-13T23:47:51.517Z,8.80
2019-05-13T23:50:22.035Z,8.60
2019-05-13T23:52:52.674Z,8.60
2019-05-13T23:55:23.235Z,8.50
2019-05-13T23:57:53.853Z,8.50
